Time;durP1;ratioP1;P1;durP2;ratioP2;P2;SDS_P1;SDS_P2;PMS_P1;PMS_P2;Temp;Humidity;BMP_temperature;BMP_pressure;BME280_temperature;BME280_humidity;BME280_pressure;Samples;Min_cycle;Max_cycle;Signal;HPM_P1;HPM_P2
2021/12/22 00:02:12;;;;;;;17.77;10.43;;;;;;;-3.28;59.96;96048.63;5029195;28;20026;-67
2021/12/22 00:04:44;;;;;;;18.50;11.20;;;;;;;-3.41;59.93;96030.91;5028343;28;20022;-68
2021/12/22 00:07:10;;;;;;;16.35;10.13;;;;;;;-3.56;60.07;96034.16;5028907;28;20110;-66
2021/12/22 00:09:36;;;;;;;19.70;12.07;;;;;;;-3.43;60.56;96042.63;5028900;28;20029;-67
2021/12/22 00:12:02;;;;;;;16.63;11.10;;;;;;;-3.42;60.67;96049.38;5029070;28;20104;-67
2021/12/22 00:14:27;;;;;;;19.65;12.40;;;;;;;-3.75;60.63;96005.41;5028825;28;20017;-65
2021/12/22 00:16:53;;;;;;;21.75;12.15;;;;;;;-3.61;60.58;96038.28;5028236;28;20420;-63
2021/12/22 00:19:18;;;;;;;30.25;16.15;;;;;;;-3.74;62.03;96041.53;5028611;28;20115;-65
2021/12/22 00:21:43;;;;;;;31.92;17.45;;;;;;;-3.69;61.82;96042.41;5028594;28;20032;-66
2021/12/22 00:24:09;;;;;;;32.85;18.85;;;;;;;-3.84;62.16;96025.47;5028554;28;20480;-66
2021/12/22 00:26:35;;;;;;;37.13;21.55;;;;;;;-4.27;62.47;95993.16;5028608;28;20032;-69
2021/12/22 00:29:00;;;;;;;38.67;21.20;;;;;;;-3.90;62.86;96043.91;5028312;28;20052;-68
2021/12/22 00:31:26;;;;;;;35.72;21.77;;;;;;;-4.18;62.63;95996.59;5028773;28;20044;-67
2021/12/22 00:33:53;;;;;;;34.67;23.05;;;;;;;-4.06;62.94;96026.97;5028697;28;20029;-65
2021/12/22 00:36:22;;;;;;;40.05;23.58;;;;;;;-4.02;63.46;96053.03;5028525;28;20025;-67
2021/12/22 00:38:48;;;;;;;35.05;20.90;;;;;;;-4.22;63.25;96022.59;5028157;28;20029;-62
2021/12/22 00:41:14;;;;;;;35.95;18.60;;;;;;;-4.36;63.47;96018.25;5028681;28;20029;-65
2021/12/22 00:43:40;;;;;;;30.90;18.98;;;;;;;-4.31;64.21;96048.50;5028347;28;20589;-63
2021/12/22 00:46:06;;;;;;;34.58;19.45;;;;;;;-4.29;64.39;96061.97;5028302;28;20116;-65
2021/12/22 00:48:32;;;;;;;37.10;21.52;;;;;;;-4.28;64.24;96062.00;5028390;28;20049;-68
2021/12/22 00:50:58;;;;;;;34.58;19.10;;;;;;;-4.52;64.97;96054.16;5027892;28;20520;-65
2021/12/22 00:53:23;;;;;;;32.72;19.40;;;;;;;-4.48;64.85;96065.94;5028191;28;20028;-69
2021/12/22 00:55:49;;;;;;;40.13;23.83;;;;;;;-4.52;65.04;96062.53;5028613;28;20078;-65
2021/12/22 00:58:16;;;;;;;40.95;21.02;;;;;;;-4.46;64.97;96064.28;5029222;28;20029;-65
2021/12/22 01:00:42;;;;;;;39.65;22.05;;;;;;;-4.46;65.37;96071.84;5032388;28;20397;-61
2021/12/22 01:03:08;;;;;;;32.75;21.38;;;;;;;-4.45;65.41;96060.94;5032006;28;20033;-64
2021/12/22 01:05:33;;;;;;;33.78;18.63;;;;;;;-4.37;64.68;96066.91;5032521;28;20025;-62
2021/12/22 01:07:59;;;;;;;34.78;19.00;;;;;;;-4.30;64.42;96072.88;5032166;28;20030;-65
2021/12/22 01:10:31;;;;;;;37.88;19.23;;;;;;;-4.32;64.26;96057.72;5032318;28;20029;-66
2021/12/22 01:13:00;;;;;;;32.70;17.25;;;;;;;-4.21;64.00;96069.59;5032689;28;20128;-62
2021/12/22 01:15:26;;;;;;;33.15;19.02;;;;;;;-4.32;63.57;96019.97;5031835;28;20053;-62
2021/12/22 01:18:14;;;;;;;29.42;17.40;;;;;;;-4.10;63.64;96050.41;5032062;28;20473;-63
2021/12/22 01:21:06;;;;;;;28.80;17.23;;;;;;;-4.14;63.55;96041.16;5032024;28;20095;-64
2021/12/22 01:23:35;;;;;;;27.80;16.25;;;;;;;-4.10;63.06;96051.28;5031965;28;20033;-66
2021/12/22 01:26:04;;;;;;;24.98;15.48;;;;;;;-4.09;62.88;96045.38;5031800;28;20044;-66
2021/12/22 01:28:29;;;;;;;24.55;15.00;;;;;;;-4.12;62.51;96026.88;5031591;28;20036;-65
2021/12/22 01:31:01;;;;;;;25.10;14.88;;;;;;;-4.21;63.34;96047.78;5031694;28;20033;-66
2021/12/22 01:33:26;;;;;;;;;;;;;;;-4.20;62.94;96043.59;5032178;28;20113;-66
2021/12/22 01:35:51;;;;;;;27.33;15.05;;;;;;;-4.47;63.10;96035.75;5031866;28;20047;-65
2021/12/22 01:38:17;;;;;;;25.25;15.45;;;;;;;-4.44;63.10;96042.50;5031762;28;20104;-65
2021/12/22 01:40:44;;;;;;;24.75;13.93;;;;;;;-4.41;63.42;96046.72;5031353;28;20029;-63
2021/12/22 01:43:13;;;;;;;21.15;12.75;;;;;;;-4.50;63.09;96044.94;5031682;28;20033;-63
2021/12/22 01:51:09;;;;;;;22.30;12.63;;;;;;;-4.77;63.59;96038.75;5031502;28;20678;-63
2021/12/22 01:53:41;;;;;;;16.10;10.05;;;;;;;-4.71;63.10;96038.81;5031493;28;20032;-66
2021/12/22 01:58:44;;;;;;;17.95;10.82;;;;;;;-4.89;63.47;95995.81;5031564;28;20044;-64
2021/12/22 02:01:11;;;;;;;15.45;10.05;;;;;;;-4.86;62.54;96006.75;5031576;28;20109;-63
2021/12/22 02:03:39;;;;;;;14.95;9.43;;;;;;;-4.86;63.04;96021.84;5031173;28;20522;-65
2021/12/22 02:06:05;;;;;;;17.58;10.48;;;;;;;-4.95;62.87;96006.66;5031163;28;20477;-65
2021/12/22 02:08:32;;;;;;;19.42;11.40;;;;;;;-4.91;62.71;96007.53;5030589;28;20036;-65
2021/12/22 02:10:58;;;;;;;16.13;9.38;;;;;;;-4.75;62.38;96024.50;5030636;28;20403;-64
2021/12/22 02:13:29;;;;;;;17.05;9.73;;;;;;;-4.85;62.60;96012.63;5031041;28;20021;-64
2021/12/22 02:15:55;;;;;;;15.43;8.80;;;;;;;-4.75;62.74;96024.50;5030485;28;20053;-65
2021/12/22 02:18:21;;;;;;;11.95;8.45;;;;;;;-4.67;61.79;96025.44;5030987;28;20040;-65
2021/12/22 02:20:49;;;;;;;13.98;9.27;;;;;;;-4.58;62.32;96013.78;5030856;28;20029;-64
2021/12/22 02:23:15;;;;;;;15.07;10.43;;;;;;;-4.67;62.74;96017.91;5030688;28;20462;-61
2021/12/22 02:25:50;;;;;;;21.20;12.75;;;;;;;-4.67;62.84;96020.41;5030558;28;20029;-65
2021/12/22 02:28:23;;;;;;;15.90;10.38;;;;;;;-4.71;63.29;96015.31;5030492;28;20068;-65
2021/12/22 02:30:51;;;;;;;17.42;10.40;;;;;;;-4.68;63.05;96016.19;5030859;28;20053;-66
2021/12/22 02:35:54;;;;;;;20.60;11.57;;;;;;;-4.55;62.82;96009.63;5030671;28;20037;-64
2021/12/22 02:38:20;;;;;;;19.95;11.55;;;;;;;-4.49;62.35;96003.84;5030290;28;20033;-63
2021/12/22 02:40:49;;;;;;;18.77;11.20;;;;;;;-4.69;62.08;95946.56;5030387;28;20412;-63
2021/12/22 02:43:20;;;;;;;16.67;11.23;;;;;;;-4.31;62.38;96006.56;5028592;28;20076;-63
2021/12/22 02:45:46;;;;;;;20.25;10.63;;;;;;;-4.39;61.58;95995.56;5030332;28;20038;-65
2021/12/22 02:48:12;;;;;;;17.33;11.50;;;;;;;-4.38;62.50;95984.63;5030159;28;20041;-63
2021/12/22 02:50:37;;;;;;;19.08;11.95;;;;;;;-4.16;61.97;95988.22;5024336;28;20056;-63
2021/12/22 02:53:07;;;;;;;18.15;11.27;;;;;;;-4.24;61.84;95997.38;5028567;28;20037;-65
2021/12/22 02:55:50;;;;;;;18.40;11.80;;;;;;;-4.52;62.46;95948.41;5030199;28;20057;-64
2021/12/22 03:01:27;;;;;;;21.23;12.18;;;;;;;-4.18;62.51;96001.63;4988238;28;20878;-64
2021/12/22 03:04:04;;;;;;;15.70;10.32;;;;;;;-4.11;61.98;96008.44;4987886;28;20046;-64
2021/12/22 03:08:55;;;;;;;22.58;12.05;;;;;;;-4.27;62.64;96010.78;4987971;28;20497;-66
2021/12/22 03:11:21;;;;;;;18.02;11.70;;;;;;;-4.30;62.70;96008.22;4988078;28;20637;-68
2021/12/22 03:13:47;;;;;;;22.38;12.77;;;;;;;-4.21;62.67;96009.16;4987855;28;20030;-66
2021/12/22 03:16:13;;;;;;;21.95;13.25;;;;;;;-4.23;62.48;96004.13;5002099;28;20045;-65
2021/12/22 03:18:38;;;;;;;25.48;17.05;;;;;;;-4.53;63.21;95980.28;5027273;28;20538;-67
2021/12/22 03:21:23;;;;;;;32.97;16.95;;;;;;;-4.68;63.78;95986.00;5026721;28;20038;-64
2021/12/22 03:23:51;;;;;;;24.35;15.00;;;;;;;-4.71;64.75;96007.75;5026917;28;20033;-62
2021/12/22 03:26:18;;;;;;;26.80;17.25;;;;;;;-4.95;65.08;96005.78;5027032;28;20044;-64
2021/12/22 03:28:46;;;;;;;26.05;14.73;;;;;;;-5.61;65.01;95913.53;5026417;28;20029;-62
2021/12/22 03:31:13;;;;;;;23.88;15.50;;;;;;;-5.18;66.08;95988.72;5026806;28;20045;-64
2021/12/22 03:33:39;;;;;;;26.27;15.52;;;;;;;-5.13;66.36;95994.66;5026909;28;20033;-65
2021/12/22 03:36:05;;;;;;;24.65;16.52;;;;;;;-4.96;65.44;96011.66;5026791;28;20031;-66
2021/12/22 03:38:32;;;;;;;26.35;16.08;;;;;;;-5.00;66.15;95999.03;5041101;28;20056;-62
2021/12/22 03:40:58;;;;;;;29.52;16.42;;;;;;;-5.09;65.57;95998.06;5049189;28;20167;-65
2021/12/22 03:43:24;;;;;;;21.60;12.85;;;;;;;-5.15;65.43;96008.88;5049157;28;20079;-66
2021/12/22 03:45:49;;;;;;;20.17;12.02;;;;;;;-5.29;65.54;95986.06;5049039;28;20028;-60
2021/12/22 03:48:17;;;;;;;19.85;12.20;;;;;;;-5.27;65.55;96008.72;5049062;28;20033;-66
2021/12/22 03:50:43;;;;;;;22.48;12.57;;;;;;;-5.46;64.90;95982.44;5048581;28;20499;-62
2021/12/22 03:53:08;;;;;;;18.42;12.18;;;;;;;-5.39;65.15;96016.94;5048958;28;20028;-65
2021/12/22 03:55:34;;;;;;;14.75;11.07;;;;;;;-5.51;64.18;96006.66;5048826;28;20044;-65
2021/12/22 03:58:00;;;;;;;16.45;9.98;;;;;;;-5.56;64.23;96012.50;5048694;28;20420;-66
2021/12/22 04:00:25;;;;;;;16.48;9.85;;;;;;;-5.65;64.28;95999.78;5048850;28;20033;-65
2021/12/22 04:02:51;;;;;;;16.92;9.10;;;;;;;-5.54;63.86;96013.34;5047588;28;20060;-62
2021/12/22 04:05:18;;;;;;;16.58;8.63;;;;;;;-5.57;63.31;96004.94;5048800;28;20036;-65
2021/12/22 04:07:43;;;;;;;11.38;7.95;;;;;;;-5.46;63.75;96018.50;5048779;28;20040;-65
2021/12/22 04:10:20;;;;;;;17.20;8.57;;;;;;;-5.61;63.73;96023.28;5063702;28;20067;-66
2021/12/22 04:12:49;;;;;;;13.73;9.05;;;;;;;-5.62;64.58;96017.41;5048565;28;20090;-64
2021/12/22 04:15:15;;;;;;;12.55;7.63;;;;;;;-5.47;63.96;96021.84;5048062;28;20040;-64
2021/12/22 04:17:40;;;;;;;13.50;8.38;;;;;;;-5.84;63.51;95960.94;5028975;28;20053;-62
2021/12/22 04:20:06;;;;;;;12.02;7.60;;;;;;;-5.23;63.35;96030.53;5028552;28;20029;-65
2021/12/22 04:22:31;;;;;;;12.65;8.88;;;;;;;-5.12;63.61;96029.03;5028394;28;20025;-62
2021/12/22 04:24:57;;;;;;;15.63;8.18;;;;;;;-4.99;63.08;96028.38;5028568;28;20033;-63
2021/12/22 04:27:22;;;;;;;16.17;8.77;;;;;;;-4.91;62.66;96032.69;5027989;28;20036;-62
2021/12/22 04:29:48;;;;;;;16.58;9.73;;;;;;;-5.07;61.99;95998.91;5028856;28;20077;-62
2021/12/22 04:32:13;;;;;;;14.93;10.07;;;;;;;-4.77;61.98;96031.19;5028528;28;20029;-65
2021/12/22 04:35:10;;;;;;;15.90;10.30;;;;;;;-4.80;62.01;96033.66;5028242;28;20029;-64
2021/12/22 04:52:00;;;;;;;14.77;8.88;;;;;;;-5.55;62.59;96053.53;4787277;29;20039;-64
2021/12/22 05:04:40;;;;;;;13.68;8.27;;;;;;;-5.57;64.63;96048.50;4944902;29;20467;-63
2021/12/22 05:07:58;;;;;;;;;;;;;;;;;;;;;
2021/12/22 05:10:53;;;;;;;17.13;8.98;;;;;;;-5.63;64.08;96034.97;4856549;29;20482;-64
2021/12/22 05:20:30;;;;;;;14.82;8.32;;;;;;;-5.57;64.84;96057.69;4959361;28;20061;-63
2021/12/22 05:22:55;;;;;;;13.93;9.02;;;;;;;-5.50;64.17;96053.63;4983765;28;20485;-63
2021/12/22 05:25:21;;;;;;;16.90;8.68;;;;;;;-5.46;63.69;96065.41;4983640;28;20559;-62
2021/12/22 05:54:54;;;;;;;17.48;8.90;;;;;;;-4.78;63.24;96072.28;4832267;29;20038;-63
2021/12/22 05:57:19;;;;;;;15.32;9.00;;;;;;;-4.70;62.92;96073.22;4832225;29;20035;-65
2021/12/22 05:59:45;;;;;;;13.50;9.30;;;;;;;-4.60;62.40;96069.16;4832461;29;20041;-61
2021/12/22 06:02:10;;;;;;;20.73;13.48;;;;;;;-4.52;63.32;96071.78;4815492;29;20112;-61
2021/12/22 06:04:36;;;;;;;24.60;11.20;;;;;;;-4.50;62.14;96076.00;4813708;29;20599;-62
2021/12/22 06:07:02;;;;;;;15.73;10.10;;;;;;;-4.41;63.05;96074.41;4814107;29;20403;-61
2021/12/22 06:09:27;;;;;;;20.42;10.88;;;;;;;-4.37;62.62;96066.09;4814087;29;20047;-64
2021/12/22 06:11:53;;;;;;;20.10;11.65;;;;;;;-4.39;62.24;96067.72;4820991;29;20061;-60
2021/12/22 06:14:18;;;;;;;21.67;12.73;;;;;;;-4.38;62.38;96077.81;4823187;29;20035;-63
2021/12/22 06:16:44;;;;;;;18.08;11.35;;;;;;;-4.35;62.40;96075.31;4820986;29;20059;-58
2021/12/22 06:19:10;;;;;;;18.08;12.75;;;;;;;-4.35;62.98;96085.41;4823193;29;20038;-62
2021/12/22 06:21:36;;;;;;;19.33;12.20;;;;;;;-4.32;62.81;96089.63;4781749;29;20091;-64
2021/12/22 06:24:02;;;;;;;21.40;12.45;;;;;;;-4.29;63.01;96093.03;4788695;29;20056;-64
2021/12/22 06:26:27;;;;;;;16.95;11.85;;;;;;;-4.29;62.91;96095.56;4816507;29;20046;-62
2021/12/22 06:28:53;;;;;;;20.52;11.98;;;;;;;-4.29;62.31;96090.53;4915834;29;20043;-61
2021/12/22 06:31:19;;;;;;;23.80;11.85;;;;;;;-4.26;61.43;96094.75;4990095;28;20043;-60
2021/12/22 06:33:44;;;;;;;24.17;12.00;;;;;;;-4.29;61.29;96100.59;5053066;28;20112;-60
2021/12/22 06:36:10;;;;;;;21.60;11.73;;;;;;;-4.50;62.22;96085.22;5056703;28;20032;-62
2021/12/22 06:38:36;;;;;;;19.90;12.05;;;;;;;-4.45;62.46;96099.53;5056876;28;20115;-61
2021/12/22 06:41:03;;;;;;;24.58;12.85;;;;;;;-4.56;62.31;96078.41;5060940;28;20104;-63
2021/12/22 06:43:28;;;;;;;29.50;17.58;;;;;;;-4.44;62.10;96088.66;5058158;28;20057;-62
2021/12/22 06:45:54;;;;;;;36.53;17.77;;;;;;;-4.49;62.56;96099.50;5061388;28;20020;-63
2021/12/22 06:48:19;;;;;;;27.15;18.48;;;;;;;-4.54;61.96;96101.97;5059064;28;20032;-66
2021/12/22 06:50:45;;;;;;;36.35;17.92;;;;;;;-4.80;62.10;96067.22;5054022;28;20043;-66
2021/12/22 06:53:10;;;;;;;28.50;17.45;;;;;;;-4.51;61.88;96091.94;5053292;28;20036;-60
2021/12/22 06:55:36;;;;;;;39.42;19.23;;;;;;;-4.47;62.29;96108.75;5047135;28;20534;-61
2021/12/22 06:58:01;;;;;;;33.30;19.58;;;;;;;-4.52;61.43;96095.28;5046090;28;20028;-64
2021/12/22 07:00:27;;;;;;;34.03;19.52;;;;;;;-4.30;61.17;96108.97;5046516;28;20036;-71
2021/12/22 07:02:54;;;;;;;33.75;20.40;;;;;;;-4.69;60.96;96056.44;5038139;28;20061;-64
2021/12/22 07:05:20;;;;;;;41.70;24.98;;;;;;;-4.49;60.91;96115.47;5037369;28;20032;-61
2021/12/22 07:07:46;;;;;;;44.47;27.27;;;;;;;-4.60;61.14;96098.53;5044947;28;20033;-62
2021/12/22 07:10:12;;;;;;;43.63;24.30;;;;;;;-4.35;61.00;96114.78;5045710;28;20043;-61
2021/12/22 07:12:42;;;;;;;39.63;24.38;;;;;;;-4.68;60.48;96086.66;5047486;28;20029;-65
2021/12/22 07:15:10;;;;;;;45.90;22.63;;;;;;;-4.44;61.17;96118.03;5041518;28;20552;-65
2021/12/22 07:17:37;;;;;;;39.85;24.40;;;;;;;-4.38;60.55;96110.53;5042879;28;20790;-64
2021/12/22 07:20:05;;;;;;;43.10;24.95;;;;;;;-4.39;61.00;96108.88;5040931;28;20040;-67
2021/12/22 07:22:31;;;;;;;42.72;24.08;;;;;;;-4.38;61.23;96110.53;5046949;28;20468;-64
2021/12/22 07:24:57;;;;;;;41.65;25.05;;;;;;;-4.33;61.06;96103.91;5044162;28;20033;-66
2021/12/22 07:27:22;;;;;;;46.85;26.92;;;;;;;-4.19;61.28;96105.75;5046263;28;20051;-64
2021/12/22 07:29:48;;;;;;;42.10;26.13;;;;;;;-3.96;60.30;96079.13;5043855;28;20033;-65
2021/12/22 07:32:13;;;;;;;38.95;24.67;;;;;;;-3.60;59.03;96114.78;5045101;28;20028;-68
2021/12/22 07:34:48;;;;;;;46.13;27.33;;;;;;;-3.24;58.95;96100.81;5045339;28;20542;-65
2021/12/22 07:37:27;;;;;;;49.30;26.88;;;;;;;-2.88;57.59;96100.22;5044785;28;20029;-67
2021/12/22 07:39:52;;;;;;;43.22;26.13;;;;;;;-2.61;56.96;96094.50;5041927;28;20143;-66
2021/12/22 07:42:18;;;;;;;47.90;26.67;;;;;;;-2.31;55.84;96092.09;5049523;28;20508;-67
2021/12/22 07:44:44;;;;;;;36.50;22.05;;;;;;;-1.95;54.64;96088.91;5048001;28;20029;-64
2021/12/22 07:47:09;;;;;;;33.33;21.73;;;;;;;-1.61;53.41;96078.00;5049452;28;20024;-66
2021/12/22 07:49:35;;;;;;;32.90;20.38;;;;;;;-1.40;53.07;96084.78;5049555;28;20032;-65
2021/12/22 07:52:00;;;;;;;34.60;21.35;;;;;;;-1.44;52.64;96052.69;5049107;28;20459;-67
2021/12/22 07:54:26;;;;;;;38.33;23.17;;;;;;;-1.32;52.38;96088.97;5049581;28;20021;-66
2021/12/22 07:56:51;;;;;;;37.97;23.55;;;;;;;-1.20;51.59;96079.72;5049616;28;20029;-65
2021/12/22 07:59:17;;;;;;;36.10;23.98;;;;;;;-1.74;52.50;96024.88;5049387;28;20103;-67
2021/12/22 08:01:42;;;;;;;38.45;23.98;;;;;;;-1.69;52.78;96088.97;5049271;28;20417;-66
2021/12/22 08:04:08;;;;;;;40.70;25.15;;;;;;;-1.62;52.96;96068.72;5049136;28;20025;-65
2021/12/22 08:06:33;;;;;;;35.72;22.48;;;;;;;-1.78;53.37;96093.16;5048380;28;20031;-66
2021/12/22 08:08:59;;;;;;;42.65;23.23;;;;;;;-1.86;53.45;96098.19;5049142;28;20492;-67
2021/12/22 08:11:24;;;;;;;37.40;22.05;;;;;;;-1.82;53.97;96092.31;5049273;28;20100;-62
2021/12/22 08:13:50;;;;;;;37.85;21.90;;;;;;;-1.87;54.46;96114.19;5049290;28;20040;-62
2021/12/22 08:16:15;;;;;;;40.05;24.20;;;;;;;-1.67;52.98;96081.38;5048895;28;20029;-67
2021/12/22 08:18:41;;;;;;;36.58;22.27;;;;;;;-0.80;51.91;96088.13;5049444;28;20461;-63
2021/12/22 08:21:07;;;;;;;38.22;23.48;;;;;;;0.77;48.19;96091.69;5043295;28;20051;-63
2021/12/22 08:23:32;;;;;;;34.38;23.45;;;;;;;2.60;43.73;96091.34;5047820;28;20045;-61
2021/12/22 08:25:58;;;;;;;32.20;21.40;;;;;;;4.15;39.18;96056.31;5048305;28;20136;-64
2021/12/22 08:28:23;;;;;;;27.98;19.38;;;;;;;5.89;35.95;96077.69;5047830;28;20102;-64
2021/12/22 08:30:49;;;;;;;29.02;19.90;;;;;;;7.14;33.71;96069.69;5047502;28;20035;-64
2021/12/22 08:33:23;;;;;;;31.42;21.42;;;;;;;6.13;34.84;96076.16;5047726;28;20028;-64
2021/12/22 08:38:52;;;;;;;20.00;15.77;;;;;;;3.73;37.99;96084.41;5047903;28;20147;-62
2021/12/22 08:41:20;;;;;;;28.95;17.00;;;;;;;2.92;39.55;96093.44;5048477;28;20091;-63
2021/12/22 08:43:46;;;;;;;26.30;17.65;;;;;;;2.75;39.86;96087.72;5047051;28;20053;-65
2021/12/22 08:46:11;;;;;;;20.42;15.23;;;;;;;2.70;40.29;96084.41;5047996;28;20095;-65
2021/12/22 08:48:37;;;;;;;31.40;17.65;;;;;;;2.46;40.33;96060.16;5047477;28;20029;-64
2021/12/22 08:51:03;;;;;;;29.38;19.05;;;;;;;2.19;42.00;96105.50;5047275;28;20021;-62
2021/12/22 08:53:28;;;;;;;26.02;18.02;;;;;;;2.94;40.85;96091.69;5047705;28;20662;-71
2021/12/22 08:55:54;;;;;;;29.88;19.08;;;;;;;6.60;34.65;96075.66;5048139;28;20140;-61
2021/12/22 08:58:32;;;;;;;27.67;17.70;;;;;;;7.63;31.31;96081.78;5028904;28;20488;-70
2021/12/22 09:01:22;;;;;;;27.15;18.98;;;;;;;6.82;32.17;96078.41;5048492;28;20032;-63
2021/12/22 09:03:48;;;;;;;26.98;18.45;;;;;;;5.28;34.58;96060.53;5047419;28;20029;-61
2021/12/22 09:06:14;;;;;;;28.52;20.33;;;;;;;5.03;35.26;96093.50;5080875;28;20451;-62
2021/12/22 09:08:41;;;;;;;28.08;19.05;;;;;;;4.50;36.08;96095.59;5048235;28;20027;-65
2021/12/22 09:11:06;;;;;;;30.65;19.38;;;;;;;5.10;35.44;96101.88;5048106;28;20043;-65
2021/12/22 09:13:32;;;;;;;34.03;20.80;;;;;;;7.26;32.77;96068.44;5047952;28;20044;-63
2021/12/22 09:15:57;;;;;;;30.83;21.27;;;;;;;6.52;32.60;96039.19;5042046;28;20404;-64
2021/12/22 09:18:23;;;;;;;30.38;21.38;;;;;;;6.98;33.02;96042.84;5047903;28;20502;-68
2021/12/22 09:20:49;;;;;;;31.77;20.17;;;;;;;8.04;31.33;96079.47;5047235;28;20033;-65
2021/12/22 09:23:15;;;;;;;31.83;20.63;;;;;;;8.46;29.95;96037.69;5047258;28;20112;-69
2021/12/22 09:25:41;;;;;;;30.83;21.27;;;;;;;7.63;30.48;96046.66;5047709;28;20056;-70
2021/12/22 09:28:07;;;;;;;39.55;24.38;;;;;;;6.62;31.74;96050.81;5047499;28;20075;-73
2021/12/22 09:30:36;;;;;;;30.90;21.13;;;;;;;6.52;31.64;95986.19;5047129;28;20033;-70
2021/12/22 09:33:07;;;;;;;36.53;23.00;;;;;;;6.68;31.88;96067.75;5047894;28;20095;-68
2021/12/22 09:35:33;;;;;;;36.40;23.85;;;;;;;5.77;33.49;96073.75;5047550;28;20135;-69
2021/12/22 09:37:59;;;;;;;37.63;22.55;;;;;;;6.24;33.23;96073.31;5047924;28;20091;-68
2021/12/22 09:40:25;;;;;;;28.70;20.23;;;;;;;5.62;32.97;96035.75;5047206;28;20456;-69
2021/12/22 09:42:50;;;;;;;27.88;20.05;;;;;;;6.20;33.07;96067.44;5047380;28;20045;-69
2021/12/22 09:45:18;;;;;;;35.28;21.35;;;;;;;8.21;30.54;96053.16;5046558;28;20036;-68
2021/12/22 09:48:02;;;;;;;33.72;19.52;;;;;;;8.72;28.76;96034.09;5045614;28;20063;-70
2021/12/22 09:53:13;;;;;;;34.25;21.10;;;;;;;10.68;27.03;96020.56;5047194;28;20032;-62
2021/12/22 09:55:39;;;;;;;27.63;19.67;;;;;;;10.90;25.83;95998.88;5047190;28;20040;-66
2021/12/22 09:58:05;;;;;;;32.22;22.27;;;;;;;11.20;25.87;96015.44;5047473;28;20025;-66
2021/12/22 10:00:34;;;;;;;31.38;22.90;;;;;;;10.17;26.59;96029.78;5046886;28;20040;-64
2021/12/22 10:03:00;;;;;;;32.13;20.83;;;;;;;10.06;26.50;96023.34;5046663;28;20044;-71
2021/12/22 10:05:25;;;;;;;36.00;21.77;;;;;;;11.04;25.77;96027.44;5047411;28;20029;-67
2021/12/22 10:08:15;;;;;;;33.33;20.08;;;;;;;11.21;25.02;96024.88;5047132;28;20023;-65
2021/12/22 10:10:44;;;;;;;29.75;21.45;;;;;;;12.11;24.53;96015.97;5027170;28;20465;-71
2021/12/22 10:13:15;;;;;;;31.20;21.58;;;;;;;11.80;24.11;95998.66;5043196;28;20452;-70
2021/12/22 10:15:41;;;;;;;34.63;21.92;;;;;;;9.06;27.17;96030.19;5045666;28;20025;-68
2021/12/22 10:18:12;;;;;;;28.20;20.73;;;;;;;10.33;25.72;95986.09;5045653;28;20047;-74
2021/12/22 10:20:40;;;;;;;31.70;21.92;;;;;;;11.73;24.18;95966.28;5046459;28;20021;-70
2021/12/22 10:23:29;;;;;;;30.15;20.63;;;;;;;11.42;24.29;96013.53;5046843;28;20140;-72
2021/12/22 10:26:06;;;;;;;31.35;19.20;;;;;;;10.88;25.70;96006.69;5046302;28;20040;-67
2021/12/22 10:28:47;;;;;;;32.63;20.02;;;;;;;10.50;25.13;96017.09;5046900;28;20035;-71
2021/12/22 10:31:13;;;;;;;29.95;20.50;;;;;;;10.46;25.58;96013.81;5050549;28;20122;-70
2021/12/22 10:33:41;;;;;;;32.30;19.95;;;;;;;9.14;26.48;95929.53;5051029;28;20025;-70
2021/12/22 10:36:18;;;;;;;31.83;20.27;;;;;;;9.23;27.44;96020.94;5050512;28;20033;-71
2021/12/22 10:38:50;;;;;;;30.98;20.75;;;;;;;7.93;28.51;96028.50;5049763;28;20025;-68
2021/12/22 10:41:16;;;;;;;32.38;21.52;;;;;;;7.90;28.40;95995.22;5050306;28;20086;-69
2021/12/22 10:43:46;;;;;;;30.65;19.70;;;;;;;7.01;30.29;96029.09;5049985;28;20061;-69
2021/12/22 10:46:16;;;;;;;37.38;24.20;;;;;;;6.30;31.32;96016.78;5049756;28;20102;-71
2021/12/22 10:51:33;;;;;;;31.40;22.98;;;;;;;5.62;32.78;96023.78;5050240;28;20459;-70
2021/12/22 10:53:59;;;;;;;;;;;;;;;5.63;32.90;96015.25;5051024;28;20025;-69
2021/12/22 10:56:36;;;;;;;29.70;20.27;;;;;;;5.07;34.10;95976.69;5050095;28;20284;-70
2021/12/22 10:59:08;;;;;;;32.22;19.70;;;;;;;5.24;34.31;96012.88;5049625;28;20399;-70
2021/12/22 11:01:57;;;;;;;33.05;20.63;;;;;;;5.49;34.15;96009.66;5049778;28;20334;-71
2021/12/22 11:04:29;;;;;;;31.58;20.30;;;;;;;5.76;34.30;95997.00;5050197;28;20121;-68
2021/12/22 11:07:04;;;;;;;29.88;19.98;;;;;;;5.26;35.04;95998.34;5050002;28;20431;-69
2021/12/22 11:09:34;;;;;;;32.33;19.70;;;;;;;4.95;35.23;96000.81;5049710;28;20037;-65
2021/12/22 11:11:59;;;;;;;32.70;20.52;;;;;;;4.57;36.22;96006.00;5049547;28;20037;-66
2021/12/22 11:14:27;;;;;;;29.80;20.38;;;;;;;4.27;36.50;96001.63;5049742;28;20029;-71
2021/12/22 11:17:12;;;;;;;34.80;21.58;;;;;;;4.93;35.84;95995.75;5048628;28;20025;-68
2021/12/22 11:19:46;;;;;;;33.10;20.27;;;;;;;5.34;35.16;95993.88;5049489;28;20407;-71
2021/12/22 11:22:16;;;;;;;34.63;20.85;;;;;;;5.17;34.99;95978.13;5049623;28;20082;-65
2021/12/22 11:24:54;;;;;;;30.30;19.75;;;;;;;5.45;34.36;95991.00;5049485;28;20128;-70
2021/12/22 11:27:25;;;;;;;29.83;19.42;;;;;;;6.02;33.57;95966.38;5049457;28;20048;-73
2021/12/22 11:29:55;;;;;;;29.38;19.00;;;;;;;5.84;33.38;95959.22;5052402;28;20033;-73
2021/12/22 11:32:22;;;;;;;32.83;19.23;;;;;;;5.42;33.80;95939.91;5051083;28;20821;-68
2021/12/22 11:34:51;;;;;;;29.92;20.55;;;;;;;5.62;34.49;95980.28;5049695;28;20098;-75
2021/12/22 11:37:17;;;;;;;31.80;20.65;;;;;;;5.77;33.83;95961.13;5049717;28;20037;-75
2021/12/22 11:39:44;;;;;;;33.20;20.75;;;;;;;6.43;33.32;95973.69;5047796;28;20493;-69
2021/12/22 11:42:12;;;;;;;31.38;19.38;;;;;;;7.04;32.14;95952.06;5049556;28;20118;-66
2021/12/22 11:44:38;;;;;;;28.80;18.40;;;;;;;6.89;32.21;95943.19;5049264;28;20028;-65
2021/12/22 11:47:08;;;;;;;29.60;19.23;;;;;;;6.73;32.66;95965.91;5048465;28;20025;-65
2021/12/22 11:49:37;;;;;;;28.92;18.95;;;;;;;6.67;32.77;95974.63;5049985;28;20029;-70
2021/12/22 11:52:27;;;;;;;33.00;20.25;;;;;;;6.63;32.53;95962.81;5048510;28;20111;-70
2021/12/22 11:55:15;;;;;;;29.42;19.65;;;;;;;5.71;34.24;95977.47;5049265;28;20104;-69
2021/12/22 11:57:43;;;;;;;30.08;19.30;;;;;;;5.52;34.58;95933.66;5049174;28;20028;-67
2021/12/22 12:00:29;;;;;;;27.80;18.45;;;;;;;5.22;35.57;95975.44;5048644;28;20028;-64
2021/12/22 12:02:57;;;;;;;30.30;21.63;;;;;;;4.97;36.21;95969.25;5048178;28;20044;-66
2021/12/22 12:05:31;;;;;;;28.80;18.52;;;;;;;4.27;37.09;95976.91;5047998;28;20030;-65
2021/12/22 12:08:02;;;;;;;28.40;17.23;;;;;;;4.92;36.01;95981.31;5049179;28;20494;-66
2021/12/22 12:10:47;;;;;;;26.35;17.25;;;;;;;5.21;35.76;95964.38;5048990;28;20404;-62
2021/12/22 12:13:26;;;;;;;23.77;16.67;;;;;;;5.31;35.58;95965.81;5047212;28;20471;-62
2021/12/22 12:21:38;;;;;;;29.42;18.92;;;;;;;5.42;35.61;95960.38;5047666;28;20308;-67
2021/12/22 12:21:59;;;;;;;30.00;17.75;;;;;;;8.57;29.72;95945.56;5049063;28;20510;-65
2021/12/22 12:24:56;;;;;;;26.20;18.02;;;;;;;9.20;29.16;95935.25;5048118;28;20043;-66
2021/12/22 12:27:33;;;;;;;26.17;16.55;;;;;;;9.34;29.00;95937.19;5047767;28;20104;-69
2021/12/22 12:30:06;;;;;;;29.27;17.15;;;;;;;9.19;28.31;95937.88;5047935;28;20025;-67
2021/12/22 12:32:40;;;;;;;28.00;17.98;;;;;;;8.87;28.68;95923.78;5048584;28;20118;-59
2021/12/22 12:35:22;;;;;;;27.58;17.00;;;;;;;8.12;30.65;95930.19;5048588;28;20056;-63
2021/12/22 12:38:17;;;;;;;26.77;18.75;;;;;;;8.57;29.58;95925.00;5048731;28;20035;-69
2021/12/22 12:40:54;;;;;;;28.42;19.23;;;;;;;8.85;28.39;95913.56;5048473;28;20044;-67
2021/12/22 12:49:14;;;;;;;28.10;18.95;;;;;;;8.01;30.33;95918.59;4966687;28;20027;-65
2021/12/22 12:51:42;;;;;;;30.95;18.35;;;;;;;8.27;30.26;95912.44;4965513;28;20046;-71
2021/12/22 12:54:25;;;;;;;25.27;17.63;;;;;;;8.92;28.61;95907.28;4966697;28;20047;-71
2021/12/22 12:56:57;;;;;;;24.48;16.88;;;;;;;10.19;26.60;95904.22;4966821;28;20066;-70
2021/12/22 12:59:38;;;;;;;21.95;15.02;;;;;;;10.51;25.67;95904.44;4966726;28;20110;-68
2021/12/22 13:02:05;;;;;;;21.77;14.45;;;;;;;8.01;28.48;95923.72;4966341;28;20121;-71
2021/12/22 13:04:31;;;;;;;25.33;15.93;;;;;;;6.85;30.90;95931.34;4966740;28;20045;-73